createdAt,value
2022-10-03T00:02:04.648Z,15.95
2022-10-03T00:04:50.170Z,17.55
2022-10-03T00:07:42.332Z,16.98
2022-10-03T00:10:25.027Z,14.63
2022-10-03T00:13:05.887Z,14.50
2022-10-03T00:15:48.693Z,15.25
2022-10-03T00:18:31.174Z,16.80
2022-10-03T00:21:19.837Z,15.32
2022-10-03T00:24:01.021Z,13.43
2022-10-03T00:26:42.498Z,12.27
2022-10-03T00:29:26.871Z,12.77
2022-10-03T00:32:08.642Z,12.90
2022-10-03T00:37:28.820Z,12.30
2022-10-03T00:40:32.804Z,12.73
2022-10-03T00:43:34.301Z,12.65
2022-10-03T00:46:22.193Z,11.90
2022-10-03T00:49:17.105Z,12.85
2022-10-03T00:52:07.904Z,11.73
2022-10-03T00:54:52.389Z,13.32
2022-10-03T00:57:39.376Z,13.30
2022-10-03T01:03:18.995Z,12.57
2022-10-03T01:06:02.835Z,13.05
2022-10-03T01:08:43.567Z,12.63
2022-10-03T01:11:25.457Z,13.55
2022-10-03T01:16:44.131Z,11.82
2022-10-03T01:19:40.882Z,12.73
2022-10-03T01:22:31.779Z,11.77
2022-10-03T01:25:08.130Z,12.23
2022-10-03T01:27:58.595Z,12.88
2022-10-03T01:30:38.877Z,13.40
2022-10-03T01:33:23.670Z,12.77
2022-10-03T01:36:02.076Z,12.73
2022-10-03T01:38:41.959Z,12.88
2022-10-03T01:41:20.083Z,12.05
2022-10-03T01:43:55.196Z,12.68
2022-10-03T01:46:35.014Z,12.23
2022-10-03T01:49:15.364Z,11.40
2022-10-03T01:51:56.031Z,11.30
2022-10-03T01:54:36.101Z,12.00
2022-10-03T01:57:17.715Z,12.65
2022-10-03T01:59:56.074Z,11.93
2022-10-03T02:02:33.310Z,11.80
2022-10-03T02:05:12.455Z,10.98
2022-10-03T02:07:50.029Z,11.07
2022-10-03T02:10:34.523Z,10.27
2022-10-03T02:13:11.264Z,11.05
2022-10-03T02:16:12.177Z,10.63
2022-10-03T02:18:49.241Z,10.37
2022-10-03T02:21:22.592Z,10.10
2022-10-03T02:27:15.362Z,9.95
2022-10-03T02:30:05.375Z,9.35
2022-10-03T02:33:11.202Z,10.05
2022-10-03T02:36:06.880Z,9.45
2022-10-03T02:38:52.025Z,9.65
2022-10-03T02:41:43.080Z,9.02
2022-10-03T02:44:45.177Z,9.73
2022-10-03T02:47:44.095Z,9.93
2022-10-03T02:50:44.575Z,9.65
2022-10-03T02:53:52.307Z,8.52
2022-10-03T02:56:53.824Z,9.38
2022-10-03T02:59:49.025Z,8.82
2022-10-03T03:03:06.364Z,9.20
2022-10-03T03:06:13.536Z,8.90
2022-10-03T03:09:02.682Z,9.07
2022-10-03T03:12:07.576Z,9.30
2022-10-03T03:15:00.714Z,9.70
2022-10-03T03:17:36.761Z,9.77
2022-10-03T03:20:37.139Z,9.68
2022-10-03T03:23:39.166Z,10.15
2022-10-03T03:26:33.512Z,10.32
2022-10-03T03:29:11.705Z,10.35
2022-10-03T03:32:04.980Z,10.43
2022-10-03T03:34:45.071Z,9.57
2022-10-03T03:37:27.011Z,11.43
2022-10-03T03:40:14.742Z,11.38
2022-10-03T03:43:14.061Z,12.05
2022-10-03T03:45:54.203Z,11.40
2022-10-03T03:48:48.561Z,12.10
2022-10-03T03:51:27.900Z,12.95
2022-10-03T03:54:19.202Z,12.20
2022-10-03T03:57:08.494Z,11.60
2022-10-03T04:00:06.224Z,11.88
2022-10-03T04:03:07.581Z,11.88
2022-10-03T04:05:52.277Z,10.55
2022-10-03T04:08:35.486Z,11.70
2022-10-03T04:11:18.155Z,11.85
2022-10-03T04:14:09.620Z,11.77
2022-10-03T04:17:12.284Z,11.60
2022-10-03T04:19:53.088Z,11.55
2022-10-03T04:22:47.092Z,11.65
2022-10-03T04:25:44.439Z,11.27
2022-10-03T04:28:33.853Z,12.88
2022-10-03T04:31:17.014Z,12.65
2022-10-03T04:34:19.848Z,12.88
2022-10-03T04:37:10.168Z,11.68
2022-10-03T04:39:49.461Z,12.68
2022-10-03T04:42:29.253Z,11.50
2022-10-03T04:45:20.054Z,11.18
2022-10-03T04:47:55.389Z,9.68
2022-10-03T04:50:35.631Z,10.60
2022-10-03T04:53:23.104Z,10.95
2022-10-03T04:55:58.668Z,11.10
2022-10-03T04:58:38.014Z,10.15
2022-10-03T05:01:16.454Z,10.00
2022-10-03T05:03:55.868Z,9.10
2022-10-03T05:06:37.140Z,9.77
2022-10-03T05:09:23.801Z,8.93
2022-10-03T05:12:07.171Z,9.20
2022-10-03T05:15:07.822Z,8.70
2022-10-03T05:17:48.248Z,8.75
2022-10-03T05:20:43.488Z,8.60
2022-10-03T05:23:25.786Z,8.63
2022-10-03T05:26:32.697Z,8.15
2022-10-03T05:29:07.030Z,8.23
2022-10-03T05:31:49.813Z,8.73
2022-10-03T05:34:36.145Z,7.85
2022-10-03T05:37:32.770Z,7.32
2022-10-03T05:40:06.067Z,8.05
2022-10-03T05:42:50.611Z,5.85
2022-10-03T05:45:31.201Z,7.53
2022-10-03T05:48:15.093Z,7.57
2022-10-03T05:51:18.998Z,7.22
2022-10-03T05:54:21.108Z,6.63
2022-10-03T05:59:55.168Z,7.43
2022-10-03T06:02:54.925Z,7.38
2022-10-03T06:05:33.703Z,6.60
2022-10-03T06:08:32.004Z,7.30
2022-10-03T06:11:13.988Z,6.40
2022-10-03T06:14:18.941Z,6.57
2022-10-03T06:17:02.516Z,5.88
2022-10-03T06:19:49.334Z,6.72
2022-10-03T06:23:03.559Z,6.38
2022-10-03T06:26:15.177Z,5.93
2022-10-03T06:29:09.817Z,5.25
2022-10-03T06:32:19.589Z,4.95
2022-10-03T06:35:25.706Z,5.05
2022-10-03T06:38:25.560Z,4.88
2022-10-03T06:41:29.455Z,5.00
2022-10-03T06:44:17.525Z,4.75
2022-10-03T06:47:21.158Z,4.80
2022-10-03T06:50:26.978Z,4.60
2022-10-03T06:53:16.456Z,4.53
2022-10-03T06:56:10.477Z,4.45
2022-10-03T06:59:05.168Z,4.70
2022-10-03T07:02:18.263Z,4.78
2022-10-03T07:05:26.290Z,4.90
2022-10-03T07:08:35.229Z,4.68
2022-10-03T07:11:21.118Z,4.50
2022-10-03T07:14:24.738Z,4.90
2022-10-03T07:17:28.447Z,4.97
2022-10-03T07:20:38.747Z,4.43
2022-10-03T07:23:42.509Z,5.03
2022-10-03T07:26:47.530Z,4.65
2022-10-03T07:29:46.262Z,4.60
2022-10-03T07:32:42.230Z,4.55
2022-10-03T07:35:51.809Z,3.67
2022-10-03T07:39:01.600Z,4.10
2022-10-03T07:42:16.940Z,4.43
2022-10-03T07:45:13.898Z,4.65
2022-10-03T07:48:15.732Z,4.80
2022-10-03T07:51:10.249Z,4.20
2022-10-03T07:54:16.157Z,4.85
2022-10-03T07:57:13.874Z,4.40
2022-10-03T08:00:11.409Z,4.40
2022-10-03T08:03:28.963Z,4.93
2022-10-03T08:06:23.173Z,4.88
2022-10-03T08:09:24.736Z,4.07
2022-10-03T08:12:22.059Z,4.82
2022-10-03T08:15:04.589Z,4.95
2022-10-03T08:18:23.621Z,5.00
2022-10-03T08:20:55.514Z,3.92
2022-10-03T08:23:58.685Z,3.88
2022-10-03T08:26:46.998Z,3.70
2022-10-03T08:29:28.856Z,4.13
2022-10-03T08:32:28.203Z,4.50
2022-10-03T08:35:30.716Z,3.65
2022-10-03T08:38:33.185Z,3.97
2022-10-03T08:41:40.661Z,3.78
2022-10-03T08:45:04.512Z,3.72
2022-10-03T08:48:03.916Z,3.53
2022-10-03T08:50:58.617Z,3.95
2022-10-03T08:54:03.525Z,4.10
2022-10-03T08:56:53.910Z,3.80
2022-10-03T08:59:58.104Z,4.13
2022-10-03T09:03:31.821Z,4.35
2022-10-03T09:06:24.613Z,3.67
2022-10-03T09:09:14.069Z,3.55
2022-10-03T09:12:28.962Z,3.80
2022-10-03T09:15:30.458Z,3.53
2022-10-03T09:18:26.655Z,3.88
2022-10-03T09:21:37.366Z,3.65
2022-10-03T09:24:40.723Z,3.78
2022-10-03T09:27:31.531Z,3.78
2022-10-03T09:30:17.248Z,3.47
2022-10-03T09:33:23.755Z,3.30
2022-10-03T09:36:06.627Z,3.10
2022-10-03T09:38:59.712Z,3.25
2022-10-03T09:42:06.533Z,3.40
2022-10-03T09:44:55.903Z,3.22
2022-10-03T09:48:04.231Z,3.47
2022-10-03T09:51:16.035Z,3.60
2022-10-03T09:54:27.864Z,3.85
2022-10-03T09:57:18.516Z,2.63
2022-10-03T10:00:19.400Z,1.50
2022-10-03T10:03:24.350Z,1.15
2022-10-03T10:06:25.015Z,1.20
2022-10-03T10:09:24.110Z,1.38
2022-10-03T10:12:27.173Z,1.60
2022-10-03T10:15:28.772Z,1.30
2022-10-03T10:18:31.238Z,1.52
2022-10-03T10:21:40.951Z,1.35
2022-10-03T10:24:46.119Z,1.50
2022-10-03T10:27:50.219Z,1.55
2022-10-03T10:30:53.508Z,1.80
2022-10-03T10:33:59.964Z,1.63
2022-10-03T10:37:22.593Z,0.90
2022-10-03T10:40:19.760Z,0.60
2022-10-03T10:43:26.204Z,0.90
2022-10-03T10:46:41.190Z,0.60
2022-10-03T10:49:51.764Z,0.70
2022-10-03T10:52:55.892Z,0.70
2022-10-03T10:55:57.150Z,1.40
2022-10-03T10:59:13.699Z,0.88
2022-10-03T11:02:27.304Z,0.65
2022-10-03T11:05:34.962Z,0.70
2022-10-03T11:08:52.293Z,0.88
2022-10-03T11:12:01.229Z,1.00
2022-10-03T11:15:01.431Z,0.80
2022-10-03T11:18:17.049Z,0.80
2022-10-03T11:21:21.197Z,0.80
2022-10-03T11:24:25.287Z,0.80
2022-10-03T11:27:29.657Z,0.60
2022-10-03T11:30:20.288Z,0.73
2022-10-03T11:33:25.175Z,0.60
2022-10-03T11:36:43.656Z,0.60
2022-10-03T11:39:24.206Z,0.60
2022-10-03T11:42:04.535Z,0.70
2022-10-03T11:44:49.858Z,0.57
2022-10-03T11:47:55.903Z,0.75
2022-10-03T11:50:38.371Z,0.52
2022-10-03T11:53:28.585Z,0.80
2022-10-03T11:56:14.477Z,0.60
2022-10-03T11:59:01.769Z,0.60
2022-10-03T12:01:49.701Z,0.50
2022-10-03T12:04:30.125Z,0.60
2022-10-03T12:07:25.741Z,0.60
2022-10-03T12:10:11.609Z,0.50
2022-10-03T12:12:47.390Z,0.60
2022-10-03T12:15:29.708Z,0.60
2022-10-03T12:18:08.554Z,0.60
2022-10-03T12:21:01.057Z,0.50
2022-10-03T12:23:56.766Z,0.40
2022-10-03T12:26:32.996Z,0.47
2022-10-03T12:29:14.102Z,0.38
2022-10-03T12:31:51.722Z,0.32
2022-10-03T12:34:33.504Z,0.40
2022-10-03T12:39:56.666Z,0.30
2022-10-03T12:42:37.048Z,0.40
2022-10-03T12:45:18.585Z,0.40
2022-10-03T12:48:12.342Z,0.40
2022-10-03T12:56:40.826Z,0.32
2022-10-03T12:59:19.825Z,0.22
2022-10-03T13:02:11.093Z,0.40
2022-10-03T13:04:47.312Z,0.30
2022-10-03T13:07:29.886Z,0.70
2022-10-03T13:10:21.173Z,0.40
2022-10-03T13:13:05.585Z,0.40
2022-10-03T13:16:01.551Z,0.30
2022-10-03T13:18:46.964Z,0.40
2022-10-03T13:21:44.453Z,0.40
2022-10-03T13:24:27.727Z,0.47
2022-10-03T13:27:17.884Z,0.40
2022-10-03T13:29:58.511Z,0.45
2022-10-03T13:32:36.531Z,0.40
2022-10-03T13:35:39.910Z,0.52
2022-10-03T13:38:32.298Z,0.60
2022-10-03T13:41:17.255Z,0.88
2022-10-03T13:43:51.729Z,1.33
2022-10-03T13:46:31.803Z,0.68
2022-10-03T13:49:10.609Z,0.52
2022-10-03T13:51:49.630Z,0.20
2022-10-03T13:54:26.583Z,0.40
2022-10-03T13:57:03.651Z,0.40
2022-10-03T13:59:54.513Z,0.60
2022-10-03T14:02:46.168Z,0.45
2022-10-03T14:05:53.838Z,0.38
2022-10-03T14:08:41.790Z,0.40
2022-10-03T14:11:36.412Z,0.40
2022-10-03T14:14:27.493Z,0.50
2022-10-03T14:17:04.217Z,0.60
2022-10-03T14:19:47.494Z,0.73
2022-10-03T14:22:33.598Z,0.43
2022-10-03T14:25:35.913Z,0.63
2022-10-03T14:28:15.353Z,0.57
2022-10-03T14:31:06.174Z,0.80
2022-10-03T14:33:43.222Z,0.40
2022-10-03T14:36:36.882Z,0.40
2022-10-03T14:39:26.502Z,0.82
2022-10-03T14:42:21.934Z,0.50
2022-10-03T14:44:59.090Z,0.60
2022-10-03T14:47:35.452Z,0.95
2022-10-03T14:50:05.906Z,0.73
2022-10-03T14:52:50.995Z,0.90
2022-10-03T14:55:25.325Z,0.77
2022-10-03T14:58:11.895Z,0.70
2022-10-03T15:00:45.469Z,0.77
2022-10-03T15:03:37.544Z,0.90
2022-10-03T15:08:56.710Z,0.90
2022-10-03T15:11:30.108Z,0.90
2022-10-03T15:14:03.390Z,1.17
2022-10-03T15:16:36.839Z,0.80
2022-10-03T15:19:17.023Z,0.90
2022-10-03T15:21:47.695Z,1.13
2022-10-03T15:24:25.625Z,1.20
2022-10-03T15:27:00.932Z,2.17
2022-10-03T15:29:32.480Z,1.20
2022-10-03T15:32:02.401Z,0.90
2022-10-03T15:34:34.819Z,1.00
2022-10-03T15:37:17.826Z,0.98
2022-10-03T15:39:54.553Z,0.90
2022-10-03T15:42:25.189Z,0.90
2022-10-03T15:45:02.569Z,0.88
2022-10-03T15:47:39.657Z,1.00
2022-10-03T15:50:18.995Z,0.95
2022-10-03T15:52:52.001Z,1.38
2022-10-03T15:58:18.355Z,1.27
2022-10-03T16:00:57.539Z,1.15
2022-10-03T16:03:32.404Z,1.20
2022-10-03T16:06:10.485Z,1.10
2022-10-03T16:08:54.570Z,1.02
2022-10-03T16:11:29.974Z,0.90
2022-10-03T16:14:17.521Z,0.88
2022-10-03T16:16:53.620Z,1.00
2022-10-03T16:19:38.895Z,0.90
2022-10-03T16:22:24.229Z,0.80
2022-10-03T16:25:05.707Z,1.40
2022-10-03T16:27:41.477Z,1.23
2022-10-03T16:30:22.340Z,0.80
2022-10-03T16:33:02.179Z,0.60
2022-10-03T16:35:40.828Z,0.50
2022-10-03T16:38:21.680Z,0.40
2022-10-03T16:41:16.818Z,0.50
2022-10-03T16:43:59.240Z,0.50
2022-10-03T16:46:32.891Z,0.57
2022-10-03T16:49:24.488Z,0.60
2022-10-03T16:52:01.920Z,0.60
2022-10-03T16:54:38.023Z,0.40
2022-10-03T16:57:14.267Z,0.50
2022-10-03T16:59:52.234Z,0.50
2022-10-03T17:02:25.186Z,0.70
2022-10-03T17:05:07.928Z,0.88
2022-10-03T17:07:44.726Z,0.90
2022-10-03T17:10:31.792Z,0.88
2022-10-03T17:13:10.301Z,0.93
2022-10-03T17:15:50.253Z,0.90
2022-10-03T17:18:28.040Z,0.93
2022-10-03T17:21:05.331Z,0.88
2022-10-03T17:23:40.520Z,1.10
2022-10-03T17:26:20.845Z,0.70
2022-10-03T17:28:57.541Z,1.30
2022-10-03T17:31:35.449Z,0.80
2022-10-03T17:34:13.522Z,0.80
2022-10-03T17:36:58.650Z,0.90
2022-10-03T17:39:51.202Z,1.02
2022-10-03T17:42:38.638Z,0.70
2022-10-03T17:45:19.877Z,1.02
2022-10-03T17:47:58.467Z,1.02
2022-10-03T17:50:39.038Z,1.20
2022-10-03T17:53:19.999Z,1.38
2022-10-03T17:55:52.981Z,1.10
2022-10-03T17:58:30.536Z,1.27
2022-10-03T18:01:07.966Z,1.15
2022-10-03T18:03:51.565Z,1.02
2022-10-03T18:06:39.476Z,1.48
2022-10-03T18:09:20.659Z,1.02
2022-10-03T18:11:52.408Z,1.10
2022-10-03T18:14:34.268Z,1.23
2022-10-03T18:17:12.369Z,1.08
2022-10-03T18:20:01.857Z,1.00
2022-10-03T18:22:40.910Z,1.05
2022-10-03T18:25:36.480Z,1.02
2022-10-03T18:28:18.030Z,0.90
2022-10-03T18:30:52.629Z,0.80
2022-10-03T18:33:27.278Z,0.93
2022-10-03T18:35:59.245Z,0.80
2022-10-03T18:38:30.820Z,0.80
2022-10-03T18:41:09.810Z,1.02
2022-10-03T18:43:44.899Z,0.70
2022-10-03T18:46:21.590Z,0.60
2022-10-03T18:49:28.324Z,0.90
2022-10-03T18:51:55.364Z,0.60
2022-10-03T18:54:37.952Z,0.88
2022-10-03T18:57:13.083Z,0.80
2022-10-03T18:59:52.658Z,0.50
2022-10-03T19:02:30.993Z,1.00
2022-10-03T19:05:06.500Z,0.70
2022-10-03T19:07:50.333Z,0.55
2022-10-03T19:10:40.616Z,0.80
2022-10-03T19:13:31.049Z,0.80
2022-10-03T19:16:18.577Z,0.80
2022-10-03T19:19:04.125Z,0.88
2022-10-03T19:21:38.232Z,1.00
2022-10-03T19:24:18.656Z,0.93
2022-10-03T19:26:51.896Z,1.00
2022-10-03T19:29:25.788Z,0.70
2022-10-03T19:32:02.707Z,1.08
2022-10-03T19:34:39.625Z,1.00
2022-10-03T19:37:16.567Z,1.13
2022-10-03T19:39:48.275Z,1.40
2022-10-03T19:42:31.544Z,1.17
2022-10-03T19:45:02.663Z,1.15
2022-10-03T19:47:37.651Z,1.30
2022-10-03T19:50:21.312Z,1.10
2022-10-03T19:52:51.484Z,1.00
2022-10-03T19:55:26.440Z,0.80
2022-10-03T19:57:58.386Z,1.10
2022-10-03T20:00:31.323Z,0.90
2022-10-03T20:03:17.885Z,1.15
2022-10-03T20:06:10.891Z,1.08
2022-10-03T20:08:45.947Z,1.08
2022-10-03T20:11:39.750Z,1.05
2022-10-03T20:14:13.113Z,0.80
2022-10-03T20:16:46.652Z,0.90
2022-10-03T20:19:18.439Z,1.00
2022-10-03T20:21:55.998Z,1.10
2022-10-03T20:24:35.040Z,1.00
2022-10-03T20:27:19.621Z,1.10
2022-10-03T20:29:57.724Z,0.93
2022-10-03T20:32:39.310Z,1.05
2022-10-03T20:35:19.168Z,1.00
2022-10-03T20:37:53.557Z,0.90
2022-10-03T20:40:38.013Z,0.82
2022-10-03T20:43:32.091Z,1.20
2022-10-03T20:46:18.368Z,1.42
2022-10-03T20:49:03.536Z,0.88
2022-10-03T20:51:49.545Z,1.25
2022-10-03T20:54:21.049Z,1.10
2022-10-03T20:56:57.665Z,1.00
2022-10-03T20:59:42.038Z,1.20
2022-10-03T21:02:23.825Z,1.10
2022-10-03T21:07:36.820Z,1.00
2022-10-03T21:10:24.243Z,1.27
2022-10-03T21:12:55.393Z,1.20
2022-10-03T21:15:43.125Z,1.27
2022-10-03T21:18:22.913Z,1.25
2022-10-03T21:21:03.941Z,1.38
2022-10-03T21:23:38.101Z,1.10
2022-10-03T21:26:14.910Z,1.33
2022-10-03T21:28:44.220Z,1.30
2022-10-03T21:31:36.246Z,1.30
2022-10-03T21:34:22.889Z,1.40
2022-10-03T21:37:08.221Z,1.40
2022-10-03T21:39:50.707Z,1.52
2022-10-03T21:42:30.844Z,1.45
2022-10-03T21:45:11.396Z,1.30
2022-10-03T21:47:49.834Z,1.30
2022-10-03T21:50:24.046Z,1.42
2022-10-03T21:53:20.018Z,1.20
2022-10-03T21:56:08.771Z,1.27
2022-10-03T21:59:09.835Z,1.42
2022-10-03T22:01:50.194Z,1.50
2022-10-03T22:09:34.806Z,1.40
2022-10-03T22:12:08.879Z,1.75
2022-10-03T22:14:46.664Z,1.50
2022-10-03T22:20:12.898Z,1.52
2022-10-03T22:23:03.970Z,1.50
2022-10-03T22:25:48.622Z,1.60
2022-10-03T22:28:37.732Z,1.63
2022-10-03T22:31:19.095Z,1.65
2022-10-03T22:33:59.328Z,1.63
2022-10-03T22:36:36.057Z,1.58
2022-10-03T22:39:11.195Z,1.80
2022-10-03T22:41:42.555Z,1.67
2022-10-03T22:44:14.818Z,1.42
2022-10-03T22:46:54.758Z,1.50
2022-10-03T22:49:30.038Z,1.50
2022-10-03T22:52:04.863Z,1.50
2022-10-03T22:54:44.577Z,1.40
2022-10-03T22:57:14.832Z,1.42
2022-10-03T22:59:49.530Z,1.60
2022-10-03T23:02:21.560Z,1.58
2022-10-03T23:04:55.825Z,1.50
2022-10-03T23:07:46.408Z,1.55
2022-10-03T23:10:43.634Z,1.60
2022-10-03T23:13:20.109Z,1.83
2022-10-03T23:16:03.629Z,1.70
2022-10-03T23:18:53.241Z,1.85
2022-10-03T23:21:32.592Z,1.65
2022-10-03T23:24:11.873Z,2.00
2022-10-03T23:27:18.744Z,2.45
2022-10-03T23:30:08.173Z,1.75
2022-10-03T23:35:42.349Z,2.08
2022-10-03T23:38:44.034Z,1.80
2022-10-03T23:41:29.030Z,2.55
2022-10-03T23:43:59.712Z,1.70
2022-10-03T23:46:32.649Z,1.95
2022-10-03T23:49:08.156Z,1.85
2022-10-03T23:51:38.897Z,2.10
2022-10-03T23:54:13.626Z,1.73
2022-10-03T23:56:48.702Z,1.98
2022-10-03T23:59:27.114Z,2.10
